^^
Station Historical Data
Daily Summary for October 12, 2018 Units:  Both    English   Metric
Next Day »
Daily Weekly Monthly Yearly Custom
  High: Low: Average:
Temperature: 81.3 °F /  27.4 °C 63.1 °F /  17.3 °C 69.4 °F /  20.8 °C
Dew Point: 64.8 °F /  18.2 °C 52.9 °F /  11.6 °C 59 °F /  15 °C
Humidity: 94% 41% 72%
Wind Speed: 11mph /  17.7km/h - 2.4mph /  3.8km/h
Wind Gust: 12mph /  19.3km/h - -
Wind- - East
Pressure: 29.8 in /  1009.7 hPa 29.6 in /  1003.3 hPa -
Precipitation: 0.42 in /  10.7 mm    
Historical Graphs
 
 
Tabular Data for October 12, 2018
Time Temperature Dew Point Pressure Wind Wind Speed Wind Gust Humidity Rainfall Rate (Hourly) solar Conditions
00:04 71.2 °F /  21.8 °C 56.1 °F /  13.4 °C 29.8in /  1008.7hPa East 1mph /  1.6km/h 0.1mph /  0.2km/h 59% 0in /  0.0mm 0.00 W/m2 OVC
00:09 71.2 °F /  21.8 °C 56.7 °F /  13.7 °C 29.8in /  1008.8hPa East 1.2mph /  1.9km/h   60% 0in /  0.0mm 0.00 W/m2 OVC
00:14 71.1 °F /  21.7 °C 57 °F /  13.9 °C 29.8in /  1008.8hPa East 1.2mph /  1.9km/h 0.6mph /  1.0km/h 61% 0in /  0.0mm 0.00 W/m2 OVC
00:19 71.1 °F /  21.7 °C 57.4 °F /  14.1 °C 29.8in /  1008.6hPa Calm     62% 0in /  0.0mm 0.00 W/m2 OVC
00:24 70.9 °F /  21.6 °C 57 °F /  13.9 °C 29.8in /  1008.5hPa Calm     62% 0in /  0.0mm 0.00 W/m2 OVC
00:29 70.9 °F /  21.6 °C 57.6 °F /  14.2 °C 29.8in /  1008.5hPa East 1.2mph /  1.9km/h   63% 0in /  0.0mm 0.00 W/m2 OVC
00:34 70.7 °F /  21.5 °C 57.9 °F /  14.4 °C 29.8in /  1008.7hPa Calm     64% 0in /  0.0mm 0.00 W/m2 OVC
00:39 70.5 °F /  21.4 °C 58.6 °F /  14.8 °C 29.8in /  1008.8hPa East 3.5mph /  5.6km/h 0.8mph /  1.3km/h 66% 0in /  0.0mm 0.00 W/m2 OVC
00:44 70.2 °F /  21.2 °C 58.6 °F /  14.8 °C 29.8in /  1008.8hPa SSE 1.2mph /  1.9km/h 0.3mph /  0.5km/h 67% 0in /  0.0mm 0.00 W/m2 OVC
00:49 70 °F /  21.1 °C 58.8 °F /  14.9 °C 29.8in /  1008.8hPa SW 2mph /  3.2km/h 1.2mph /  1.9km/h 68% 0in /  0.0mm 0.00 W/m2 OVC
00:54 69.3 °F /  20.7 °C 59.9 °F /  15.5 °C 29.8in /  1008.9hPa WSW 2.3mph /  3.7km/h 1.9mph /  3.1km/h 72% 0in /  0.0mm 0.00 W/m2 OVC
00:59 68.5 °F /  20.3 °C 60.1 °F /  15.6 °C 29.8in /  1008.9hPa SSE 3.5mph /  5.6km/h 0.9mph /  1.4km/h 74% 0in /  0.0mm 0.00 W/m2 OVC
01:04 67.8 °F /  19.9 °C 60.3 °F /  15.7 °C 29.8in /  1008.9hPa SSE 3.5mph /  5.6km/h 1.7mph /  2.7km/h 77% 0.02in /  0.5mm 0.00 W/m2 RA
01:09 66.9 °F /  19.4 °C 60.3 °F /  15.7 °C 29.8in /  1008.9hPa East 2.3mph /  3.7km/h 0.7mph /  1.1km/h 79% 0.05in /  1.3mm 0.00 W/m2 RA
01:14 66.4 °F /  19.1 °C 59.9 °F /  15.5 °C 29.8in /  1008.8hPa ESE 2.3mph /  3.7km/h   80% 0.07in /  1.8mm 0.00 W/m2 RA
01:19 65.7 °F /  18.7 °C 60.1 °F /  15.6 °C 29.8in /  1008.9hPa ESE 2.3mph /  3.7km/h 0.3mph /  0.5km/h 82% 0.08in /  2.0mm 0.00 W/m2 RA
01:24 65.5 °F /  18.6 °C 60.1 °F /  15.6 °C 29.8in /  1008.8hPa Calm     83% 0.08in /  2.0mm 0.00 W/m2 RA
01:29 65.1 °F /  18.4 °C 60.4 °F /  15.8 °C 29.8in /  1008.5hPa NE 3.5mph /  5.6km/h 2mph /  3.2km/h 85% 0.09in /  2.3mm 0.00 W/m2 RA
01:34 64.9 °F /  18.3 °C 60.6 °F /  15.9 °C 29.8in /  1008.4hPa NE 2.3mph /  3.7km/h 0.9mph /  1.4km/h 86% 0.09in /  2.3mm 0.00 W/m2 RA
01:39 64.8 °F /  18.2 °C 60.4 °F /  15.8 °C 29.8in /  1008.4hPa NNE 3.5mph /  5.6km/h 0.8mph /  1.3km/h 86% 0.09in /  2.3mm 0.00 W/m2 OVC
01:44 64.8 °F /  18.2 °C 60.6 °F /  15.9 °C 29.8in /  1008.4hPa NNE 3.5mph /  5.6km/h 0.3mph /  0.5km/h 87% 0.09in /  2.3mm 0.00 W/m2 OVC
01:49 64.6 °F /  18.1 °C 60.6 °F /  15.9 °C 29.8in /  1008.4hPa Calm     87% 0.1in /  2.5mm 0.00 W/m2 RA
01:54 64.6 °F /  18.1 °C 61 °F /  16.1 °C 29.8in /  1008.5hPa NNE 3mph /  4.8km/h 1.6mph /  2.6km/h 88% 0.12in /  3.0mm 0.00 W/m2 RA
01:59 64.6 °F /  18.1 °C 61 °F /  16.1 °C 29.8in /  1008.5hPa North 2mph /  3.2km/h 0.9mph /  1.4km/h 88% 0.13in /  3.3mm 0.00 W/m2 RA
02:04 64.6 °F /  18.1 °C 61 °F /  16.1 °C 29.8in /  1008.6hPa North 2.3mph /  3.7km/h 1.2mph /  1.9km/h 88% 0.12in /  3.0mm 0.00 W/m2 -RA
02:09 64.6 °F /  18.1 °C 61.2 °F /  16.2 °C 29.8in /  1008.8hPa North 3mph /  4.8km/h 1mph /  1.6km/h 89% 0.1in /  2.5mm 0.00 W/m2 -RA
02:14 64.4 °F /  18.0 °C 60.8 °F /  16.0 °C 29.8in /  1008.8hPa NE 3mph /  4.8km/h 0.5mph /  0.8km/h 88% 0.09in /  2.3mm 0.00 W/m2 -RA
02:19 64.2 °F /  17.9 °C 61 °F /  16.1 °C 29.8in /  1009.0hPa NE 2.3mph /  3.7km/h 0.1mph /  0.2km/h 89% 0.1in /  2.5mm 0.00 W/m2 -RA
02:24 64 °F /  17.8 °C 60.8 °F /  16.0 °C 29.8in /  1009.0hPa Calm     89% 0.12in /  3.0mm 0.00 W/m2 -RA
02:29 64 °F /  17.8 °C 60.8 °F /  16.0 °C 29.8in /  1009.1hPa Calm     89% 0.16in /  4.1mm 0.00 W/m2 -RA
02:34 64 °F /  17.8 °C 60.6 °F /  15.9 °C 29.8in /  1009.0hPa NE 3mph /  4.8km/h 0.2mph /  0.3km/h 89% 0.17in /  4.3mm 0.00 W/m2 -RA
02:39 63.9 °F /  17.7 °C 61 °F /  16.1 °C 29.8in /  1008.8hPa NE 4mph /  6.4km/h 1.6mph /  2.6km/h 90% 0.19in /  4.8mm 0.00 W/m2 -RA
02:44 63.7 °F /  17.6 °C 60.6 °F /  15.9 °C 29.8in /  1008.9hPa NE 3.5mph /  5.6km/h 0.8mph /  1.3km/h 90% 0.19in /  4.8mm 0.00 W/m2 -RA
02:49 63.7 °F /  17.6 °C 60.6 °F /  15.9 °C 29.8in /  1008.8hPa NE 3.5mph /  5.6km/h 1.1mph /  1.8km/h 90% 0.18in /  4.6mm 0.00 W/m2 -RA
02:54 63.7 °F /  17.6 °C 60.6 °F /  15.9 °C 29.8in /  1008.8hPa NE 2.3mph /  3.7km/h 0.4mph /  0.6km/h 90% 0.17in /  4.3mm 0.00 W/m2 -RA
02:59 63.5 °F /  17.5 °C 60.8 °F /  16.0 °C 29.8in /  1008.8hPa NE 1.2mph /  1.9km/h 0.6mph /  1.0km/h 91% 0.16in /  4.1mm 0.00 W/m2 -RA
03:04 63.5 °F /  17.5 °C 60.8 °F /  16.0 °C 29.8in /  1008.7hPa NE 2.3mph /  3.7km/h 0.3mph /  0.5km/h 91% 0.16in /  4.1mm 0.00 W/m2 -RA
03:09 63.5 °F /  17.5 °C 60.8 °F /  16.0 °C 29.8in /  1008.7hPa NE 2.3mph /  3.7km/h 0.4mph /  0.6km/h 91% 0.15in /  3.8mm 0.00 W/m2 -RA
03:14 63.5 °F /  17.5 °C 60.8 °F /  16.0 °C 29.8in /  1008.8hPa Calm     91% 0.14in /  3.6mm 0.00 W/m2 -RA
03:19 63.3 °F /  17.4 °C 60.6 °F /  15.9 °C 29.8in /  1008.8hPa Calm     91% 0.12in /  3.0mm 0.00 W/m2 -RA
03:24 63.3 °F /  17.4 °C 60.6 °F /  15.9 °C 29.8in /  1008.7hPa Calm     91% 0.1in /  2.5mm 0.00 W/m2 -RA
03:29 63.3 °F /  17.4 °C 60.6 °F /  15.9 °C 29.8in /  1008.7hPa NE 2.3mph /  3.7km/h 0.9mph /  1.4km/h 91% 0.06in /  1.5mm 0.00 W/m2 -RA
03:34 63.3 °F /  17.4 °C 60.6 °F /  15.9 °C 29.8in /  1008.6hPa NE 3mph /  4.8km/h 1.3mph /  2.1km/h 91% 0.05in /  1.3mm 0.00 W/m2 -RA
03:39 63.1 °F /  17.3 °C 60.4 °F /  15.8 °C 29.8in /  1008.5hPa NE 2.3mph /  3.7km/h 1mph /  1.6km/h 91% 0.03in /  0.8mm 0.00 W/m2 -RA
03:44 63.3 °F /  17.4 °C 60.6 °F /  15.9 °C 29.8in /  1008.5hPa NNE 3mph /  4.8km/h 1.4mph /  2.3km/h 91% 0.03in /  0.8mm 0.00 W/m2 -RA
03:49 63.1 °F /  17.3 °C 60.4 °F /  15.8 °C 29.8in /  1008.4hPa NNE 3.5mph /  5.6km/h 0.9mph /  1.4km/h 91% 0.04in /  1.0mm 0.00 W/m2 -RA
03:54 63.1 °F /  17.3 °C 60.4 °F /  15.8 °C 29.8in /  1008.3hPa NNE 4.6mph /  7.4km/h 1.9mph /  3.1km/h 91% 0.03in /  0.8mm 0.00 W/m2 -RA
03:59 63.1 °F /  17.3 °C 60.6 °F /  15.9 °C 29.8in /  1008.2hPa NE 3.5mph /  5.6km/h 3.3mph /  5.3km/h 92% 0.03in /  0.8mm 0.00 W/m2 -RA
04:04 63.1 °F /  17.3 °C 60.6 °F /  15.9 °C 29.8in /  1008.1hPa NNE 4mph /  6.4km/h 2.7mph /  4.3km/h 92% 0.02in /  0.5mm 0.00 W/m2 OVC
04:09 63.1 °F /  17.3 °C 60.6 °F /  15.9 °C 29.8in /  1008.1hPa NE 4.6mph /  7.4km/h 1.7mph /  2.7km/h 92% 0.02in /  0.5mm 0.00 W/m2 OVC
04:14 63.1 °F /  17.3 °C 60.6 °F /  15.9 °C 29.8in /  1008.1hPa NE 2.3mph /  3.7km/h 0.7mph /  1.1km/h 92% 0.02in /  0.5mm 0.00 W/m2 OVC
04:19 63.1 °F /  17.3 °C 60.6 °F /  15.9 °C 29.8in /  1008.1hPa NE 1.2mph /  1.9km/h 0.6mph /  1.0km/h 92% 0.02in /  0.5mm 0.00 W/m2 OVC
04:24 63.1 °F /  17.3 °C 60.6 °F /  15.9 °C 29.8in /  1008.1hPa NE 2.3mph /  3.7km/h 1.2mph /  1.9km/h 92% 0.02in /  0.5mm 0.00 W/m2 OVC
04:29 63.1 °F /  17.3 °C 60.8 °F /  16.0 °C 29.8in /  1008.2hPa Calm     92% 0.01in /  0.3mm 0.00 W/m2 OVC
04:34 63.1 °F /  17.3 °C 60.8 °F /  16.0 °C 29.8in /  1008.2hPa Calm     92% 0.01in /  0.3mm 0.00 W/m2 OVC
04:39 63.1 °F /  17.3 °C 60.8 °F /  16.0 °C 29.8in /  1008.2hPa NE 1.2mph /  1.9km/h 0.1mph /  0.2km/h 92% 0.01in /  0.3mm 0.00 W/m2 OVC
04:44 63.1 °F /  17.3 °C 60.8 °F /  16.0 °C 29.8in /  1008.2hPa NE 1.2mph /  1.9km/h   92% 0.01in /  0.3mm 0.00 W/m2 OVC
04:49 63.1 °F /  17.3 °C 60.8 °F /  16.0 °C 29.8in /  1008.2hPa Calm     92% 0in /  0.0mm 0.00 W/m2 OVC
04:54 63.1 °F /  17.3 °C 60.8 °F /  16.0 °C 29.8in /  1008.2hPa Calm     92% 0in /  0.0mm 0.00 W/m2 OVC
04:59 63.3 °F /  17.4 °C 61 °F /  16.1 °C 29.8in /  1008.2hPa NE 1.2mph /  1.9km/h   92% 0in /  0.0mm 0.00 W/m2 OVC
05:04 63.3 °F /  17.4 °C 61 °F /  16.1 °C 29.8in /  1008.3hPa Calm     92% 0in /  0.0mm 0.00 W/m2 -RA
05:09 63.3 °F /  17.4 °C 61 °F /  16.1 °C 29.8in /  1008.4hPa Calm     92% 0in /  0.0mm 0.00 W/m2 -RA
05:14 63.3 °F /  17.4 °C 61 °F /  16.1 °C 29.8in /  1008.4hPa NE 1.2mph /  1.9km/h   92% 0in /  0.0mm 0.00 W/m2 -RA
05:19 63.3 °F /  17.4 °C 61 °F /  16.1 °C 29.8in /  1008.5hPa Calm     92% 0.01in /  0.3mm 0.00 W/m2 -RA
05:24 63.3 °F /  17.4 °C 61.3 °F /  16.3 °C 29.8in /  1008.4hPa NE 1.2mph /  1.9km/h   93% 0.01in /  0.3mm 0.00 W/m2 -RA
05:29 63.3 °F /  17.4 °C 61 °F /  16.1 °C 29.8in /  1008.6hPa NE 1.2mph /  1.9km/h   92% 0.01in /  0.3mm 0.00 W/m2 -RA
05:34 63.3 °F /  17.4 °C 61.3 °F /  16.3 °C 29.8in /  1008.7hPa Calm     93% 0.02in /  0.5mm 0.00 W/m2 -RA
05:39 63.3 °F /  17.4 °C 61.3 °F /  16.3 °C 29.8in /  1008.8hPa Calm     93% 0.02in /  0.5mm 0.00 W/m2 -RA
05:44 63.3 °F /  17.4 °C 61.3 °F /  16.3 °C 29.8in /  1008.7hPa NE 1.2mph /  1.9km/h   93% 0.02in /  0.5mm 0.00 W/m2 -RA
05:49 63.5 °F /  17.5 °C 61.3 °F /  16.3 °C 29.8in /  1008.7hPa NE 1.2mph /  1.9km/h 0.5mph /  0.8km/h 93% 0.03in /  0.8mm 0.00 W/m2 -RA
05:54 63.3 °F /  17.4 °C 61.3 °F /  16.3 °C 29.8in /  1008.7hPa NE 1.2mph /  1.9km/h   93% 0.03in /  0.8mm 0.00 W/m2 -RA
05:59 63.3 °F /  17.4 °C 61.3 °F /  16.3 °C 29.8in /  1008.6hPa NE 1.2mph /  1.9km/h 0.1mph /  0.2km/h 93% 0.03in /  0.8mm 0.00 W/m2 -RA
06:04 63.3 °F /  17.4 °C 61.3 °F /  16.3 °C 29.8in /  1008.5hPa NE 1mph /  1.6km/h 0.1mph /  0.2km/h 93% 0.03in /  0.8mm 0.00 W/m2 -RA
06:09 63.5 °F /  17.5 °C 61.3 °F /  16.3 °C 29.8in /  1008.4hPa Calm     93% 0.03in /  0.8mm 0.00 W/m2 -RA
06:14 63.5 °F /  17.5 °C 61.3 °F /  16.3 °C 29.8in /  1008.4hPa Calm     93% 0.04in /  1.0mm 0.00 W/m2 -RA
06:19 63.5 °F /  17.5 °C 61.3 °F /  16.3 °C 29.8in /  1008.3hPa Calm     93% 0.03in /  0.8mm 0.00 W/m2 -RA
06:24 63.5 °F /  17.5 °C 61.3 °F /  16.3 °C 29.8in /  1008.3hPa Calm     93% 0.03in /  0.8mm 0.00 W/m2 -RA
06:29 63.5 °F /  17.5 °C 61.3 °F /  16.3 °C 29.8in /  1008.3hPa Calm     93% 0.03in /  0.8mm 0.00 W/m2 -RA
06:34 63.5 °F /  17.5 °C 61.3 °F /  16.3 °C 29.8in /  1008.3hPa Calm     93% 0.03in /  0.8mm 0.00 W/m2 -RA
06:39 63.5 °F /  17.5 °C 61.3 °F /  16.3 °C 29.8in /  1008.3hPa Calm     93% 0.03in /  0.8mm 7.00 W/m2 -RA
06:44 63.5 °F /  17.5 °C 61.3 °F /  16.3 °C 29.8in /  1008.3hPa Calm     93% 0.03in /  0.8mm 7.00 W/m2 -RA
06:49 63.5 °F /  17.5 °C 61.3 °F /  16.3 °C 29.8in /  1008.3hPa NE 1.2mph /  1.9km/h   93% 0.02in /  0.5mm 9.00 W/m2 -RA
06:54 63.5 °F /  17.5 °C 61.3 °F /  16.3 °C 29.8in /  1008.4hPa Calm     93% 0.02in /  0.5mm 11.00 W/m2 -RA
06:59 63.5 °F /  17.5 °C 61.3 °F /  16.3 °C 29.8in /  1008.3hPa NE 1.2mph /  1.9km/h   93% 0.02in /  0.5mm 11.00 W/m2 -RA
07:04 63.3 °F /  17.4 °C 61.3 °F /  16.3 °C 29.8in /  1008.2hPa Calm     93% 0.02in /  0.5mm 12.00 W/m2 -RA
07:09 63.3 °F /  17.4 °C 61.3 °F /  16.3 °C 29.8in /  1008.2hPa Calm     93% 0.02in /  0.5mm 12.00 W/m2 -RA
07:14 63.5 °F /  17.5 °C 61.3 °F /  16.3 °C 29.8in /  1008.2hPa Calm     93% 0.02in /  0.5mm 14.00 W/m2 -RA
07:19 63.5 °F /  17.5 °C 61.3 °F /  16.3 °C 29.8in /  1008.1hPa Calm     93% 0.02in /  0.5mm 18.00 W/m2 -RA
07:24 63.5 °F /  17.5 °C 61.3 °F /  16.3 °C 29.8in /  1007.9hPa NE 1.2mph /  1.9km/h 0.2mph /  0.3km/h 93% 0.02in /  0.5mm 19.00 W/m2 -RA
07:29 63.7 °F /  17.6 °C 61.5 °F /  16.4 °C 29.8in /  1007.9hPa NE 1mph /  1.6km/h 0.1mph /  0.2km/h 93% 0.02in /  0.5mm 19.00 W/m2 -RA
07:34 63.7 °F /  17.6 °C 61.5 °F /  16.4 °C 29.8in /  1007.8hPa NE 2.3mph /  3.7km/h 0.6mph /  1.0km/h 93% 0.01in /  0.3mm 19.00 W/m2 -RA
07:39 63.7 °F /  17.6 °C 61.5 °F /  16.4 °C 29.8in /  1007.8hPa NE 1.2mph /  1.9km/h 0.2mph /  0.3km/h 93% 0.01in /  0.3mm 21.00 W/m2 -RA
07:45 63.7 °F /  17.6 °C 61.5 °F /  16.4 °C 29.8in /  1008.0hPa Calm   2mph /  3.2km/h 93% 0in /  0.0mm 28.00 W/m2 -RA
07:49 63.7 °F /  17.6 °C 61.5 °F /  16.4 °C 29.8in /  1008.3hPa Calm     93% 0.02in /  0.5mm 39.00 W/m2 -RA
07:54 63.7 °F /  17.6 °C 61.5 °F /  16.4 °C 29.8in /  1008.1hPa Calm     93% 0.02in /  0.5mm 39.00 W/m2 -RA
07:59 63.7 °F /  17.6 °C 61.5 °F /  16.4 °C 29.8in /  1008.2hPa Calm     93% 0.02in /  0.5mm 37.00 W/m2 -RA
08:04 63.9 °F /  17.7 °C 61.7 °F /  16.5 °C 29.8in /  1008.5hPa NE 1.2mph /  1.9km/h 0.1mph /  0.2km/h 93% 0.03in /  0.8mm 51.00 W/m2 RA
08:09 63.9 °F /  17.7 °C 61.7 °F /  16.5 °C 29.8in /  1008.6hPa Calm     93% 0.03in /  0.8mm 54.00 W/m2 RA
08:14 63.9 °F /  17.7 °C 61.9 °F /  16.6 °C 29.8in /  1008.7hPa Calm     93% 0.02in /  0.5mm 42.00 W/m2 BKN
08:19 63.9 °F /  17.7 °C 62.1 °F /  16.7 °C 29.8in /  1008.9hPa NE 2.3mph /  3.7km/h 0.2mph /  0.3km/h 94% 0.02in /  0.5mm 35.00 W/m2 BKN
08:24 64 °F /  17.8 °C 62.2 °F /  16.8 °C 29.8in /  1008.9hPa NE 2.3mph /  3.7km/h 0.6mph /  1.0km/h 94% 0.02in /  0.5mm 40.00 W/m2 BKN
08:29 64 °F /  17.8 °C 62.2 °F /  16.8 °C 29.8in /  1009.0hPa NE 1mph /  1.6km/h 0.1mph /  0.2km/h 94% 0.02in /  0.5mm 44.00 W/m2 BKN
08:34 64 °F /  17.8 °C 62.2 °F /  16.8 °C 29.8in /  1009.1hPa NE 1.2mph /  1.9km/h 1.2mph /  1.9km/h 94% 0.02in /  0.5mm 46.00 W/m2 BKN
08:39 64 °F /  17.8 °C 62.2 °F /  16.8 °C 29.8in /  1009.1hPa NE 2.3mph /  3.7km/h   94% 0.02in /  0.5mm 60.00 W/m2 BKN
08:44 64.2 °F /  17.9 °C 62.4 °F /  16.9 °C 29.8in /  1009.3hPa Calm     94% 0.02in /  0.5mm 81.00 W/m2 BKN
08:49 64.2 °F /  17.9 °C 62.4 °F /  16.9 °C 29.8in /  1009.6hPa NE 3.5mph /  5.6km/h 1mph /  1.6km/h 94% 0.02in /  0.5mm 86.00 W/m2 RA
08:54 64.4 °F /  18.0 °C 62.6 °F /  17.0 °C 29.8in /  1009.6hPa SSE 1.2mph /  1.9km/h 0.5mph /  0.8km/h 94% 0.02in /  0.5mm 104.00 W/m2 RA
08:59 64.6 °F /  18.1 °C 62.8 °F /  17.1 °C 29.8in /  1009.6hPa SSE 1.2mph /  1.9km/h 0.2mph /  0.3km/h 94% 0.03in /  0.8mm 105.00 W/m2 RA
09:04 64.6 °F /  18.1 °C 62.8 °F /  17.1 °C 29.8in /  1009.7hPa South 1.2mph /  1.9km/h 0.1mph /  0.2km/h 94% 0.02in /  0.5mm 95.00 W/m2 -RA
09:09 64.6 °F /  18.1 °C 62.8 °F /  17.1 °C 29.8in /  1009.6hPa South 2.3mph /  3.7km/h 0.1mph /  0.2km/h 94% 0.02in /  0.5mm 98.00 W/m2 -RA
09:14 64.8 °F /  18.2 °C 63 °F /  17.2 °C 29.8in /  1009.5hPa South 2.3mph /  3.7km/h 0.5mph /  0.8km/h 94% 0.02in /  0.5mm 111.00 W/m2 -RA
09:19 64.8 °F /  18.2 °C 63 °F /  17.2 °C 29.8in /  1009.4hPa South 1.2mph /  1.9km/h   94% 0.02in /  0.5mm 172.00 W/m2 -RA
09:24 64.9 °F /  18.3 °C 63.1 °F /  17.3 °C 29.8in /  1009.2hPa South 1.2mph /  1.9km/h 0.2mph /  0.3km/h 94% 0.02in /  0.5mm 199.00 W/m2 -RA
09:29 64.9 °F /  18.3 °C 63.1 °F /  17.3 °C 29.8in /  1009.0hPa Calm     94% 0.02in /  0.5mm 199.00 W/m2 -RA
09:34 65.3 °F /  18.5 °C 63.5 °F /  17.5 °C 29.8in /  1008.9hPa South 1mph /  1.6km/h   94% 0.02in /  0.5mm 193.00 W/m2 -RA
09:39 65.5 °F /  18.6 °C 63.7 °F /  17.6 °C 29.8in /  1008.7hPa SE 2mph /  3.2km/h 0.4mph /  0.6km/h 94% 0.02in /  0.5mm 174.00 W/m2 -RA
09:44 65.5 °F /  18.6 °C 63.7 °F /  17.6 °C 29.8in /  1008.6hPa SE 2.3mph /  3.7km/h   94% 0.02in /  0.5mm 158.00 W/m2 -RA
09:49 65.5 °F /  18.6 °C 63.7 °F /  17.6 °C 29.8in /  1008.4hPa Calm     94% 0.01in /  0.3mm 151.00 W/m2 -RA
09:54 65.5 °F /  18.6 °C 63.7 °F /  17.6 °C 29.8in /  1008.4hPa ESE 1.2mph /  1.9km/h 0.2mph /  0.3km/h 94% 0.01in /  0.3mm 179.00 W/m2 -RA
09:59 65.7 °F /  18.7 °C 63.9 °F /  17.7 °C 29.8in /  1008.3hPa East 1.2mph /  1.9km/h 0.1mph /  0.2km/h 94% 0in /  0.0mm 190.00 W/m2 -RA
10:04 65.8 °F /  18.8 °C 64 °F /  17.8 °C 29.8in /  1008.1hPa NNE 2.3mph /  3.7km/h 0.4mph /  0.6km/h 94% 0in /  0.0mm 199.00 W/m2 -RA
10:09 66 °F /  18.9 °C 64.2 °F /  17.9 °C 29.8in /  1008.1hPa NE 4.6mph /  7.4km/h 2.3mph /  3.7km/h 94% 0in /  0.0mm 209.00 W/m2 -RA
10:14 66.2 °F /  19.0 °C 64.4 °F /  18.0 °C 29.8in /  1008.0hPa NE 3.5mph /  5.6km/h 2mph /  3.2km/h 94% 0in /  0.0mm 195.00 W/m2 -RA
10:19 66.4 °F /  19.1 °C 64.2 °F /  17.9 °C 29.8in /  1007.9hPa NNE 7mph /  11.3km/h 4.2mph /  6.8km/h 93% 0in /  0.0mm 172.00 W/m2 -RA
10:24 66.4 °F /  19.1 °C 64.2 °F /  17.9 °C 29.8in /  1008.1hPa North 5.8mph /  9.3km/h 2.7mph /  4.3km/h 93% 0in /  0.0mm 220.00 W/m2 -RA
10:29 66.6 °F /  19.2 °C 64.4 °F /  18.0 °C 29.8in /  1008.1hPa NNE 3mph /  4.8km/h 1.8mph /  2.9km/h 93% 0in /  0.0mm 288.00 W/m2 -RA
10:34 66.7 °F /  19.3 °C 64.6 °F /  18.1 °C 29.8in /  1008.1hPa NNE 3.5mph /  5.6km/h 1.5mph /  2.4km/h 93% 0in /  0.0mm 334.00 W/m2 -RA
10:39 66.9 °F /  19.4 °C 64.6 °F /  18.1 °C 29.8in /  1008.1hPa NE 4.6mph /  7.4km/h 2.6mph /  4.2km/h 92% 0in /  0.0mm 350.00 W/m2 -RA
10:44 67.1 °F /  19.5 °C 64.4 °F /  18.0 °C 29.8in /  1008.1hPa NNE 3.5mph /  5.6km/h 1.8mph /  2.9km/h 91% 0in /  0.0mm 418.00 W/m2 -RA
10:49 67.5 °F /  19.7 °C 64.8 °F /  18.2 °C 29.8in /  1008.2hPa ENE 6mph /  9.7km/h 3.5mph /  5.6km/h 91% 0in /  0.0mm 441.00 W/m2 -RA
10:54 67.6 °F /  19.8 °C 64.8 °F /  18.2 °C 29.8in /  1008.2hPa East 2.3mph /  3.7km/h 1mph /  1.6km/h 90% 0in /  0.0mm 413.00 W/m2 -RA
10:59 68.2 °F /  20.1 °C 64.4 °F /  18.0 °C 29.8in /  1008.2hPa North 3.5mph /  5.6km/h 0.2mph /  0.3km/h 88% 0in /  0.0mm 374.00 W/m2 -RA
11:04 68.4 °F /  20.2 °C 64 °F /  17.8 °C 29.8in /  1008.3hPa NNE 4.6mph /  7.4km/h 3.2mph /  5.1km/h 86% 0in /  0.0mm 353.00 W/m2 SCT
11:09 68.7 °F /  20.4 °C 64 °F /  17.8 °C 29.8in /  1008.3hPa ENE 2.3mph /  3.7km/h 0.2mph /  0.3km/h 85% 0in /  0.0mm 334.00 W/m2 SCT
11:14 69.1 °F /  20.6 °C 63.7 °F /  17.6 °C 29.8in /  1008.3hPa East 3.5mph /  5.6km/h 0.9mph /  1.4km/h 83% 0in /  0.0mm 338.00 W/m2 SCT
11:19 69.3 °F /  20.7 °C 63.7 °F /  17.6 °C 29.8in /  1008.2hPa East 1.2mph /  1.9km/h 0.2mph /  0.3km/h 82% 0in /  0.0mm 352.00 W/m2 SCT
11:24 69.4 °F /  20.8 °C 63.3 °F /  17.4 °C 29.8in /  1008.1hPa East 2.3mph /  3.7km/h 0.4mph /  0.6km/h 81% 0in /  0.0mm 355.00 W/m2 SCT
11:29 69.8 °F /  21.0 °C 63.3 °F /  17.4 °C 29.8in /  1008.0hPa Calm     80% 0in /  0.0mm 360.00 W/m2 SCT
11:34 70.2 °F /  21.2 °C 63 °F /  17.2 °C 29.8in /  1008.0hPa ENE 3.5mph /  5.6km/h 1.2mph /  1.9km/h 78% 0in /  0.0mm 376.00 W/m2 SCT
11:39 70.3 °F /  21.3 °C 62.8 °F /  17.1 °C 29.8in /  1007.9hPa ENE 1.2mph /  1.9km/h 0.1mph /  0.2km/h 77% 0in /  0.0mm 378.00 W/m2 SCT
11:44 70.7 °F /  21.5 °C 62.8 °F /  17.1 °C 29.8in /  1007.9hPa NE 1.2mph /  1.9km/h   76% 0in /  0.0mm 387.00 W/m2 SCT
11:49 71.1 °F /  21.7 °C 63.5 °F /  17.5 °C 29.8in /  1007.8hPa NE 2.3mph /  3.7km/h 0.8mph /  1.3km/h 77% 0in /  0.0mm 439.00 W/m2 SCT
11:55 71.4 °F /  21.9 °C 63.5 °F /  17.5 °C 29.8in /  1007.7hPa Calm   2mph /  3.2km/h 76% 0in /  0.0mm 497.00 W/m2 SCT
11:59 72.1 °F /  22.3 °C 63.3 °F /  17.4 °C 29.8in /  1007.6hPa SSE 2.3mph /  3.7km/h 1.1mph /  1.8km/h 74% 0in /  0.0mm 547.00 W/m2 SCT
12:04 72.7 °F /  22.6 °C 63.1 °F /  17.3 °C 29.8in /  1007.4hPa SE 3.5mph /  5.6km/h 2.5mph /  4.0km/h 72% 0in /  0.0mm 462.00 W/m2 -RA
12:09 73.2 °F /  22.9 °C 62.4 °F /  16.9 °C 29.7in /  1007.3hPa ESE 5mph /  8.0km/h 4.6mph /  7.4km/h 69% 0in /  0.0mm 461.00 W/m2 -RA
12:14 73.6 °F /  23.1 °C 61.3 °F /  16.3 °C 29.7in /  1007.2hPa SE 8.1mph /  13.0km/h 3.3mph /  5.3km/h 66% 0in /  0.0mm 466.00 W/m2 -RA
12:19 73.8 °F /  23.2 °C 61.2 °F /  16.2 °C 29.7in /  1007.2hPa ESE 11mph /  17.7km/h 5.4mph /  8.7km/h 65% 0in /  0.0mm 446.00 W/m2 -RA
12:25 73.8 °F /  23.2 °C 61.7 °F /  16.5 °C 29.7in /  1007.0hPa East 3mph /  4.8km/h 12mph /  19.3km/h 66% 0in /  0.0mm 420.00 W/m2 -RA
12:29 73.8 °F /  23.2 °C 61 °F /  16.1 °C 29.7in /  1006.9hPa SE 8.1mph /  13.0km/h 3.5mph /  5.6km/h 64% 0in /  0.0mm 464.00 W/m2 -RA
12:35 73.8 °F /  23.2 °C 61 °F /  16.1 °C 29.7in /  1006.7hPa ESE 2mph /  3.2km/h 9mph /  14.5km/h 64% 0in /  0.0mm 455.00 W/m2 -RA
12:39 73.9 °F /  23.3 °C 60.1 °F /  15.6 °C 29.7in /  1006.7hPa SE 5mph /  8.0km/h 0.6mph /  1.0km/h 62% 0in /  0.0mm 427.00 W/m2 -RA
12:44 73.9 °F /  23.3 °C 60.3 °F /  15.7 °C 29.7in /  1006.5hPa SE 4.6mph /  7.4km/h 2.5mph /  4.0km/h 62% 0in /  0.0mm 503.00 W/m2 -RA
12:49 74.1 °F /  23.4 °C 60.3 °F /  15.7 °C 29.7in /  1006.5hPa SSE 6.9mph /  11.1km/h 2.2mph /  3.5km/h 62% 0in /  0.0mm 499.00 W/m2 -RA
12:54 74.1 °F /  23.4 °C 60.3 °F /  15.7 °C 29.7in /  1006.4hPa SSE 6.9mph /  11.1km/h 2.3mph /  3.7km/h 62% 0in /  0.0mm 374.00 W/m2 -RA
12:59 73.9 °F /  23.3 °C 60.6 °F /  15.9 °C 29.7in /  1006.3hPa ENE 3.5mph /  5.6km/h 1.4mph /  2.3km/h 63% 0in /  0.0mm 362.00 W/m2 -RA
13:04 73.9 °F /  23.3 °C 60.6 °F /  15.9 °C 29.7in /  1005.9hPa SE 5.8mph /  9.3km/h 1.9mph /  3.1km/h 63% 0in /  0.0mm 485.00 W/m2 SCT
13:09 74.1 °F /  23.4 °C 60.8 °F /  16.0 °C 29.7in /  1005.7hPa ESE 6.9mph /  11.1km/h 1.7mph /  2.7km/h 63% 0in /  0.0mm 450.00 W/m2 SCT
13:14 74.5 °F /  23.6 °C 60.6 °F /  15.9 °C 29.7in /  1005.5hPa SSE 3.5mph /  5.6km/h 1.6mph /  2.6km/h 62% 0in /  0.0mm 431.00 W/m2 SCT
13:19 74.7 °F /  23.7 °C 60.6 °F /  15.9 °C 29.7in /  1005.5hPa ESE 3.5mph /  5.6km/h 2.5mph /  4.0km/h 62% 0in /  0.0mm 487.00 W/m2 SCT
13:24 74.8 °F /  23.8 °C 61 °F /  16.1 °C 29.7in /  1005.2hPa ESE 5.8mph /  9.3km/h 3.4mph /  5.5km/h 62% 0in /  0.0mm 469.00 W/m2 SCT
13:29 75.2 °F /  24.0 °C 60.8 °F /  16.0 °C 29.7in /  1005.1hPa NE 3mph /  4.8km/h 3.7mph /  6.0km/h 61% 0in /  0.0mm 564.00 W/m2 SCT
13:34 75.6 °F /  24.2 °C 60.6 °F /  15.9 °C 29.7in /  1005.0hPa SE 8.1mph /  13.0km/h 3mph /  4.8km/h 60% 0in /  0.0mm 605.00 W/m2 SCT
13:39 75.7 °F /  24.3 °C 60.4 °F /  15.8 °C 29.7in /  1004.8hPa ESE 9.2mph /  14.8km/h 3.8mph /  6.1km/h 59% 0in /  0.0mm 575.00 W/m2 SCT
13:45 75.9 °F /  24.4 °C 61 °F /  16.1 °C 29.7in /  1004.8hPa SE 3mph /  4.8km/h 8mph /  12.9km/h 60% 0in /  0.0mm 446.00 W/m2 SCT
13:49 76.3 °F /  24.6 °C 61.3 °F /  16.3 °C 29.7in /  1004.7hPa ENE 4.6mph /  7.4km/h 2.1mph /  3.4km/h 60% 0in /  0.0mm 766.00 W/m2 SCT
13:54 76.5 °F /  24.7 °C 61 °F /  16.1 °C 29.7in /  1004.7hPa East 3.5mph /  5.6km/h 1.5mph /  2.4km/h 59% 0in /  0.0mm 468.00 W/m2 SCT
13:59 76.6 °F /  24.8 °C 60.8 °F /  16.0 °C 29.7in /  1004.5hPa NNE 6mph /  9.7km/h 2mph /  3.2km/h 58% 0in /  0.0mm 608.00 W/m2 SCT
14:05 77 °F /  25.0 °C 60.6 °F /  15.9 °C 29.7in /  1004.5hPa East 2mph /  3.2km/h 6mph /  9.7km/h 57% 0in /  0.0mm 816.00 W/m2 SCT
14:09 77.5 °F /  25.3 °C 61.5 °F /  16.4 °C 29.7in /  1004.4hPa East 3.5mph /  5.6km/h 0.9mph /  1.4km/h 58% 0in /  0.0mm 617.00 W/m2 SCT
14:15 78.1 °F /  25.6 °C 61 °F /  16.1 °C 29.7in /  1004.4hPa East 1mph /  1.6km/h 3mph /  4.8km/h 56% 0in /  0.0mm 668.00 W/m2 SCT
14:19 78.6 °F /  25.9 °C 60.6 °F /  15.9 °C 29.7in /  1004.3hPa East 3.5mph /  5.6km/h 0.8mph /  1.3km/h 54% 0in /  0.0mm 673.00 W/m2 SCT
14:25 79 °F /  26.1 °C 59.4 °F /  15.2 °C 29.7in /  1004.2hPa SSE 1mph /  1.6km/h 6mph /  9.7km/h 51% 0in /  0.0mm 784.00 W/m2 SCT
14:29 79.3 °F /  26.3 °C 59.2 °F /  15.1 °C 29.7in /  1004.1hPa ESE 2.3mph /  3.7km/h 2.4mph /  3.9km/h 50% 0in /  0.0mm 417.00 W/m2 SCT
14:35 79.3 °F /  26.3 °C 59.2 °F /  15.1 °C 29.7in /  1004.0hPa Calm   3mph /  4.8km/h 50% 0in /  0.0mm 438.00 W/m2 SCT
14:39 79.3 °F /  26.3 °C 58.6 °F /  14.8 °C 29.6in /  1003.8hPa East 2.3mph /  3.7km/h 0.3mph /  0.5km/h 49% 0in /  0.0mm 515.00 W/m2 SCT
14:44 79.5 °F /  26.4 °C 58.3 °F /  14.6 °C 29.6in /  1003.9hPa NE 3.5mph /  5.6km/h 2.7mph /  4.3km/h 48% 0in /  0.0mm 464.00 W/m2 SCT
14:49 79.7 °F /  26.5 °C 57.7 °F /  14.3 °C 29.6in /  1003.8hPa Calm     47% 0in /  0.0mm 415.00 W/m2 SCT
14:55 80.1 °F /  26.7 °C 57.9 °F /  14.4 °C 29.6in /  1003.7hPa ENE 1mph /  1.6km/h 3mph /  4.8km/h 47% 0in /  0.0mm 601.00 W/m2 SCT
14:59 80.4 °F /  26.9 °C 58.3 °F /  14.6 °C 29.6in /  1003.7hPa NNE 1mph /  1.6km/h 0.2mph /  0.3km/h 47% 0in /  0.0mm 510.00 W/m2 SCT
15:05 81 °F /  27.2 °C 59.4 °F /  15.2 °C 29.6in /  1003.7hPa NW 1mph /  1.6km/h 3mph /  4.8km/h 48% 0in /  0.0mm 478.00 W/m2 OVC
15:09 81.3 °F /  27.4 °C 59.2 °F /  15.1 °C 29.6in /  1003.7hPa NE 4mph /  6.4km/h 1.7mph /  2.7km/h 47% 0in /  0.0mm 339.00 W/m2 OVC
15:15 81.1 °F /  27.3 °C 59.2 °F /  15.1 °C 29.6in /  1003.8hPa Calm   5mph /  8.0km/h 47% 0in /  0.0mm 301.00 W/m2 OVC
15:19 81 °F /  27.2 °C 56.5 °F /  13.6 °C 29.6in /  1003.6hPa NE 5mph /  8.0km/h 3mph /  4.8km/h 43% 0in /  0.0mm 417.00 W/m2 OVC
15:24 81 °F /  27.2 °C 56.3 °F /  13.5 °C 29.6in /  1003.6hPa ESE 6.9mph /  11.1km/h 3.6mph /  5.8km/h 43% 0in /  0.0mm 302.00 W/m2 OVC
15:29 80.2 °F /  26.8 °C 56.3 °F /  13.5 °C 29.6in /  1003.5hPa SE 3.5mph /  5.6km/h 0.6mph /  1.0km/h 44% 0in /  0.0mm 297.00 W/m2 OVC
15:35 79.9 °F /  26.6 °C 56.7 °F /  13.7 °C 29.6in /  1003.6hPa ESE 1mph /  1.6km/h 5mph /  8.0km/h 45% 0in /  0.0mm 258.00 W/m2 OVC
15:39 79.5 °F /  26.4 °C 55 °F /  12.8 °C 29.6in /  1003.5hPa NNE 3.5mph /  5.6km/h 2.2mph /  3.5km/h 43% 0in /  0.0mm 392.00 W/m2 OVC
15:44 79.3 °F /  26.3 °C 53.6 °F /  12.0 °C 29.6in /  1003.5hPa East 5.8mph /  9.3km/h 2.2mph /  3.5km/h 41% 0in /  0.0mm 287.00 W/m2 OVC
15:49 79.2 °F /  26.2 °C 54.7 °F /  12.6 °C 29.6in /  1003.5hPa ENE 5.8mph /  9.3km/h 2.6mph /  4.2km/h 43% 0in /  0.0mm 401.00 W/m2 OVC
15:54 79.2 °F /  26.2 °C 54.7 °F /  12.6 °C 29.6in /  1003.5hPa ESE 3.5mph /  5.6km/h 0.6mph /  1.0km/h 43% 0in /  0.0mm 413.00 W/m2 OVC
15:59 79.2 °F /  26.2 °C 54.7 °F /  12.6 °C 29.6in /  1003.5hPa NE 4mph /  6.4km/h 0.5mph /  0.8km/h 43% 0in /  0.0mm 241.00 W/m2 OVC
16:04 79.2 °F /  26.2 °C 55.2 °F /  12.9 °C 29.6in /  1003.4hPa East 3.5mph /  5.6km/h 1.5mph /  2.4km/h 44% 0in /  0.0mm 452.00 W/m2 SCT
16:09 79 °F /  26.1 °C 54 °F /  12.2 °C 29.6in /  1003.3hPa South 7mph /  11.3km/h 4.5mph /  7.2km/h 42% 0in /  0.0mm 322.00 W/m2 SCT
16:14 79.2 °F /  26.2 °C 55.2 °F /  12.9 °C 29.6in /  1003.3hPa ESE 3.5mph /  5.6km/h 1.8mph /  2.9km/h 44% 0in /  0.0mm 392.00 W/m2 SCT
16:19 79.3 °F /  26.3 °C 54.9 °F /  12.7 °C 29.6in /  1003.4hPa SSE 4.6mph /  7.4km/h 2.9mph /  4.7km/h 43% 0in /  0.0mm 404.00 W/m2 SCT
16:25 79.5 °F /  26.4 °C 58.1 °F /  14.5 °C 29.6in /  1003.4hPa ESE 2mph /  3.2km/h 8mph /  12.9km/h 48% 0in /  0.0mm 330.00 W/m2 SCT
16:29 79.3 °F /  26.3 °C 55 °F /  12.8 °C 29.6in /  1003.6hPa East 5.8mph /  9.3km/h 3.2mph /  5.1km/h 43% 0in /  0.0mm 325.00 W/m2 SCT
16:35 79.3 °F /  26.3 °C 53.6 °F /  12.0 °C 29.6in /  1003.6hPa East 3mph /  4.8km/h 6mph /  9.7km/h 41% 0in /  0.0mm 301.00 W/m2 SCT
16:39 79.3 °F /  26.3 °C 54.1 °F /  12.3 °C 29.6in /  1003.6hPa SE 4.6mph /  7.4km/h 0.4mph /  0.6km/h 42% 0in /  0.0mm 134.00 W/m2 SCT
16:45 79 °F /  26.1 °C 53.2 °F /  11.8 °C 29.6in /  1003.6hPa ESE 3mph /  4.8km/h 7mph /  11.3km/h 41% 0in /  0.0mm 174.00 W/m2 SCT
16:49 78.6 °F /  25.9 °C 53.6 °F /  12.0 °C 29.6in /  1003.7hPa SE 3.5mph /  5.6km/h 1mph /  1.6km/h 42% 0in /  0.0mm 69.00 W/m2 SCT
16:55 78.4 °F /  25.8 °C 54.1 °F /  12.3 °C 29.6in /  1003.7hPa ESE 5mph /  8.0km/h 7mph /  11.3km/h 43% 0in /  0.0mm 67.00 W/m2 SCT
16:59 78.1 °F /  25.6 °C 53.8 °F /  12.1 °C 29.6in /  1003.8hPa ESE 5.8mph /  9.3km/h 2.2mph /  3.5km/h 43% 0in /  0.0mm 70.00 W/m2 SCT
17:05 77.9 °F /  25.5 °C 54.1 °F /  12.3 °C 29.6in /  1003.9hPa ESE 1mph /  1.6km/h 5mph /  8.0km/h 44% 0in /  0.0mm 90.00 W/m2 OVC
17:09 77.7 °F /  25.4 °C 54.1 °F /  12.3 °C 29.6in /  1003.9hPa SE 3.5mph /  5.6km/h 1.2mph /  1.9km/h 44% 0in /  0.0mm 84.00 W/m2 OVC
17:15 77.5 °F /  25.3 °C 54 °F /  12.2 °C 29.7in /  1004.0hPa SE 3mph /  4.8km/h 5mph /  8.0km/h 44% 0in /  0.0mm 79.00 W/m2 OVC
17:19 77.5 °F /  25.3 °C 54.5 °F /  12.5 °C 29.7in /  1004.1hPa ESE 3.5mph /  5.6km/h 0.4mph /  0.6km/h 45% 0in /  0.0mm 72.00 W/m2 OVC
17:25 77.4 °F /  25.2 °C 53.8 °F /  12.1 °C 29.7in /  1004.1hPa SE 1mph /  1.6km/h 9mph /  14.5km/h 44% 0in /  0.0mm 62.00 W/m2 OVC
17:29 77.2 °F /  25.1 °C 54.1 °F /  12.3 °C 29.7in /  1004.1hPa SE 3.5mph /  5.6km/h 0.5mph /  0.8km/h 45% 0in /  0.0mm 47.00 W/m2 OVC
17:35 77 °F /  25.0 °C 53.4 °F /  11.9 °C 29.7in /  1004.1hPa SE 2mph /  3.2km/h 5mph /  8.0km/h 44% 0in /  0.0mm 35.00 W/m2 OVC
17:39 76.6 °F /  24.8 °C 53.1 °F /  11.7 °C 29.7in /  1004.1hPa ESE 3.5mph /  5.6km/h 0.9mph /  1.4km/h 44% 0in /  0.0mm 25.00 W/m2 OVC
17:45 76.5 °F /  24.7 °C 53.6 °F /  12.0 °C 29.7in /  1004.3hPa Calm   6mph /  9.7km/h 45% 0in /  0.0mm 16.00 W/m2 OVC
17:49 76.3 °F /  24.6 °C 54 °F /  12.2 °C 29.7in /  1004.3hPa SSE 2.3mph /  3.7km/h 1mph /  1.6km/h 46% 0in /  0.0mm 9.00 W/m2 OVC
17:54 75.9 °F /  24.4 °C 54.3 °F /  12.4 °C 29.7in /  1004.3hPa SSE 3.5mph /  5.6km/h 1.6mph /  2.6km/h 47% 0in /  0.0mm 5.00 W/m2 OVC
17:59 75.7 °F /  24.3 °C 53.4 °F /  11.9 °C 29.7in /  1004.4hPa SSE 5mph /  8.0km/h 2mph /  3.2km/h 46% 0in /  0.0mm 0.00 W/m2 OVC
18:05 75.6 °F /  24.2 °C 54 °F /  12.2 °C 29.7in /  1004.4hPa SE 1mph /  1.6km/h 4mph /  6.4km/h 47% 0in /  0.0mm 0.00 W/m2 SCT
18:09 75 °F /  23.9 °C 53.4 °F /  11.9 °C 29.7in /  1004.5hPa SSW 4.6mph /  7.4km/h 1mph /  1.6km/h 47% 0in /  0.0mm 0.00 W/m2 SCT
18:15 74.8 °F /  23.8 °C 53.2 °F /  11.8 °C 29.7in /  1004.5hPa SE 2mph /  3.2km/h 4mph /  6.4km/h 47% 0in /  0.0mm 0.00 W/m2 SCT
18:19 74.7 °F /  23.7 °C 53.6 °F /  12.0 °C 29.7in /  1004.6hPa SE 2.3mph /  3.7km/h 2mph /  3.2km/h 48% 0in /  0.0mm 0.00 W/m2 SCT
18:24 74.3 °F /  23.5 °C 53.2 °F /  11.8 °C 29.7in /  1004.7hPa SSE 3.5mph /  5.6km/h 1.4mph /  2.3km/h 48% 0in /  0.0mm 0.00 W/m2 SCT
18:29 74.1 °F /  23.4 °C 53.2 °F /  11.8 °C 29.7in /  1004.9hPa SSE 4mph /  6.4km/h 0.7mph /  1.1km/h 48% 0in /  0.0mm 0.00 W/m2 SCT
18:35 73.8 °F /  23.2 °C 52.9 °F /  11.6 °C 29.7in /  1005.0hPa SSE 1mph /  1.6km/h 4mph /  6.4km/h 48% 0in /  0.0mm 0.00 W/m2 SCT
18:39 73.6 °F /  23.1 °C 53.8 °F /  12.1 °C 29.7in /  1005.2hPa South 4.6mph /  7.4km/h 1.9mph /  3.1km/h 50% 0in /  0.0mm 0.00 W/m2 SCT
18:45 73.2 °F /  22.9 °C 55 °F /  12.8 °C 29.7in /  1005.3hPa Calm   6mph /  9.7km/h 53% 0in /  0.0mm 0.00 W/m2 SCT
18:49 72.9 °F /  22.7 °C 56.3 °F /  13.5 °C 29.7in /  1005.5hPa ESE 4.6mph /  7.4km/h 3.6mph /  5.8km/h 56% 0in /  0.0mm 0.00 W/m2 SCT
18:55 72.5 °F /  22.5 °C 56.5 °F /  13.6 °C 29.7in /  1005.6hPa South 2mph /  3.2km/h 5mph /  8.0km/h 57% 0in /  0.0mm 0.00 W/m2 SCT
18:59 72.1 °F /  22.3 °C 56.5 °F /  13.6 °C 29.7in /  1005.6hPa South 3.5mph /  5.6km/h 1.6mph /  2.6km/h 58% 0in /  0.0mm 0.00 W/m2 SCT
19:05 71.8 °F /  22.1 °C 56.1 °F /  13.4 °C 29.7in /  1005.6hPa South 2mph /  3.2km/h 6mph /  9.7km/h 58% 0in /  0.0mm 0.00 W/m2 CLR
19:09 71.4 °F /  21.9 °C 56.3 °F /  13.5 °C 29.7in /  1005.6hPa South 3.5mph /  5.6km/h 1.8mph /  2.9km/h 59% 0in /  0.0mm 0.00 W/m2 CLR
19:14 71.2 °F /  21.8 °C 56.1 °F /  13.4 °C 29.7in /  1005.7hPa SE 2.3mph /  3.7km/h 1.9mph /  3.1km/h 59% 0in /  0.0mm 0.00 W/m2 CLR
19:19 71.1 °F /  21.7 °C 55.6 °F /  13.1 °C 29.7in /  1005.8hPa SE 3.5mph /  5.6km/h 1.2mph /  1.9km/h 58% 0in /  0.0mm 0.00 W/m2 CLR
19:25 71.1 °F /  21.7 °C 55.6 °F /  13.1 °C 29.7in /  1006.0hPa SE 1mph /  1.6km/h 4mph /  6.4km/h 58% 0in /  0.0mm 0.00 W/m2 CLR
19:29 70.9 °F /  21.6 °C 54.9 °F /  12.7 °C 29.7in /  1006.0hPa SE 2.3mph /  3.7km/h 0.4mph /  0.6km/h 57% 0in /  0.0mm 0.00 W/m2 CLR
19:35 70.9 °F /  21.6 °C 54.3 °F /  12.4 °C 29.7in /  1006.0hPa Calm   3mph /  4.8km/h 56% 0in /  0.0mm 0.00 W/m2 CLR
19:39 70.7 °F /  21.5 °C 54.1 °F /  12.3 °C 29.7in /  1006.0hPa SE 1.2mph /  1.9km/h   56% 0in /  0.0mm 0.00 W/m2 CLR
19:44 70.5 °F /  21.4 °C 54 °F /  12.2 °C 29.7in /  1006.1hPa ESE 3mph /  4.8km/h 0.8mph /  1.3km/h 56% 0in /  0.0mm 0.00 W/m2 CLR
19:49 70.3 °F /  21.3 °C 54 °F /  12.2 °C 29.7in /  1006.1hPa ESE 3.5mph /  5.6km/h 2.1mph /  3.4km/h 56% 0in /  0.0mm 0.00 W/m2 CLR
19:55 70.3 °F /  21.3 °C 54 °F /  12.2 °C 29.7in /  1006.3hPa Calm   4mph /  6.4km/h 56% 0in /  0.0mm 0.00 W/m2 CLR
19:59 70.3 °F /  21.3 °C 54 °F /  12.2 °C 29.7in /  1006.3hPa East 1.2mph /  1.9km/h 0.6mph /  1.0km/h 56% 0in /  0.0mm 0.00 W/m2 CLR
20:05 70.3 °F /  21.3 °C 54.3 °F /  12.4 °C 29.7in /  1006.3hPa ESE 2mph /  3.2km/h 3mph /  4.8km/h 57% 0in /  0.0mm 0.00 W/m2 CLR
20:09 70.3 °F /  21.3 °C 54.3 °F /  12.4 °C 29.7in /  1006.4hPa ESE 2mph /  3.2km/h 0.5mph /  0.8km/h 57% 0in /  0.0mm 0.00 W/m2 CLR
20:15 70.2 °F /  21.2 °C 54.1 °F /  12.3 °C 29.7in /  1006.3hPa ESE 2mph /  3.2km/h 4mph /  6.4km/h 57% 0in /  0.0mm 0.00 W/m2 CLR
20:19 70.2 °F /  21.2 °C 54.7 °F /  12.6 °C 29.7in /  1006.4hPa East 3.5mph /  5.6km/h 0.7mph /  1.1km/h 58% 0in /  0.0mm 0.00 W/m2 CLR
20:25 70 °F /  21.1 °C 55 °F /  12.8 °C 29.7in /  1006.5hPa Calm   2mph /  3.2km/h 59% 0in /  0.0mm 0.00 W/m2 CLR
20:29 70 °F /  21.1 °C 54.9 °F /  12.7 °C 29.7in /  1006.5hPa SE 3.5mph /  5.6km/h 0.1mph /  0.2km/h 59% 0in /  0.0mm 0.00 W/m2 CLR
20:35 69.6 °F /  20.9 °C 54.9 °F /  12.7 °C 29.7in /  1006.5hPa SE 2mph /  3.2km/h 5mph /  8.0km/h 59% 0in /  0.0mm 0.00 W/m2 CLR
20:39 69.6 °F /  20.9 °C 55 °F /  12.8 °C 29.7in /  1006.6hPa ESE 2.3mph /  3.7km/h 0.5mph /  0.8km/h 60% 0in /  0.0mm 0.00 W/m2 CLR
20:45 69.4 °F /  20.8 °C 55 °F /  12.8 °C 29.7in /  1006.6hPa SE 1mph /  1.6km/h 4mph /  6.4km/h 60% 0in /  0.0mm 0.00 W/m2 CLR
20:49 69.4 °F /  20.8 °C 55.4 °F /  13.0 °C 29.7in /  1006.7hPa East 3mph /  4.8km/h 1.7mph /  2.7km/h 61% 0in /  0.0mm 0.00 W/m2 CLR
20:55 69.3 °F /  20.7 °C 55.2 °F /  12.9 °C 29.7in /  1006.7hPa Calm   4mph /  6.4km/h 61% 0in /  0.0mm 0.00 W/m2 CLR
20:59 69.3 °F /  20.7 °C 55.2 °F /  12.9 °C 29.7in /  1006.7hPa ESE 3.5mph /  5.6km/h 1.1mph /  1.8km/h 61% 0in /  0.0mm 0.00 W/m2 CLR
21:05 69.1 °F /  20.6 °C 55 °F /  12.8 °C 29.7in /  1006.8hPa Calm   4mph /  6.4km/h 61% 0in /  0.0mm 0.00 W/m2 SCT
21:09 69.1 °F /  20.6 °C 55.6 °F /  13.1 °C 29.7in /  1006.8hPa East 2.3mph /  3.7km/h 0.9mph /  1.4km/h 62% 0in /  0.0mm 0.00 W/m2 SCT
21:15 69.1 °F /  20.6 °C 55.6 °F /  13.1 °C 29.7in /  1006.9hPa ESE 2mph /  3.2km/h 7mph /  11.3km/h 62% 0in /  0.0mm 0.00 W/m2 SCT
21:19 69.1 °F /  20.6 °C 55.4 °F /  13.0 °C 29.7in /  1006.9hPa South 5.8mph /  9.3km/h   62% 0in /  0.0mm 0.00 W/m2 SCT
21:25 69.1 °F /  20.6 °C 55.4 °F /  13.0 °C 29.7in /  1006.9hPa SSE 2mph /  3.2km/h 6mph /  9.7km/h 62% 0in /  0.0mm 0.00 W/m2 SCT
21:29 68.9 °F /  20.5 °C 55.8 °F /  13.2 °C 29.7in /  1006.9hPa East 3.5mph /  5.6km/h 1.8mph /  2.9km/h 63% 0in /  0.0mm 0.00 W/m2 SCT
21:35 68.7 °F /  20.4 °C 55.8 °F /  13.2 °C 29.7in /  1006.9hPa ESE 1mph /  1.6km/h 6mph /  9.7km/h 63% 0in /  0.0mm 0.00 W/m2 SCT
21:39 68.7 °F /  20.4 °C 55.9 °F /  13.3 °C 29.7in /  1006.9hPa NE 2.3mph /  3.7km/h 1mph /  1.6km/h 64% 0in /  0.0mm 0.00 W/m2 SCT
21:45 68.5 °F /  20.3 °C 55.9 °F /  13.3 °C 29.7in /  1006.9hPa East 2mph /  3.2km/h 5mph /  8.0km/h 64% 0in /  0.0mm 0.00 W/m2 SCT
21:49 68.5 °F /  20.3 °C 55.8 °F /  13.2 °C 29.7in /  1006.9hPa South 2.3mph /  3.7km/h 1.9mph /  3.1km/h 64% 0in /  0.0mm 0.00 W/m2 SCT
21:55 68.5 °F /  20.3 °C 55.4 °F /  13.0 °C 29.7in /  1006.8hPa ESE 2mph /  3.2km/h 5mph /  8.0km/h 63% 0in /  0.0mm 0.00 W/m2 SCT
21:59 68.4 °F /  20.2 °C 55.2 °F /  12.9 °C 29.7in /  1006.9hPa SSE 3.5mph /  5.6km/h 3.8mph /  6.1km/h 63% 0in /  0.0mm 0.00 W/m2 SCT
22:05 68.4 °F /  20.2 °C 55.2 °F /  12.9 °C 29.7in /  1007.0hPa ESE 1mph /  1.6km/h 6mph /  9.7km/h 63% 0in /  0.0mm 0.00 W/m2 CLR
22:09 68.4 °F /  20.2 °C 55.2 °F /  12.9 °C 29.7in /  1007.0hPa ENE 2.3mph /  3.7km/h 0.6mph /  1.0km/h 63% 0in /  0.0mm 0.00 W/m2 CLR
22:15 68.4 °F /  20.2 °C 55.2 °F /  12.9 °C 29.7in /  1007.0hPa ESE 1mph /  1.6km/h 5mph /  8.0km/h 63% 0in /  0.0mm 0.00 W/m2 CLR
22:19 68.2 °F /  20.1 °C 55.6 °F /  13.1 °C 29.7in /  1007.0hPa ENE 3.5mph /  5.6km/h 1.7mph /  2.7km/h 64% 0in /  0.0mm 0.00 W/m2 CLR
22:25 68 °F /  20.0 °C 55.4 °F /  13.0 °C 29.7in /  1007.0hPa SE 2mph /  3.2km/h 5mph /  8.0km/h 64% 0in /  0.0mm 0.00 W/m2 CLR
22:29 67.8 °F /  19.9 °C 55.8 °F /  13.2 °C 29.7in /  1007.0hPa ESE 4.6mph /  7.4km/h 1.3mph /  2.1km/h 65% 0in /  0.0mm 0.00 W/m2 CLR
22:35 67.8 °F /  19.9 °C 55.6 °F /  13.1 °C 29.7in /  1007.0hPa ESE 1mph /  1.6km/h 3mph /  4.8km/h 65% 0in /  0.0mm 0.00 W/m2 CLR
22:39 67.6 °F /  19.8 °C 55.4 °F /  13.0 °C 29.7in /  1007.0hPa ESE 2.3mph /  3.7km/h 0.1mph /  0.2km/h 65% 0in /  0.0mm 0.00 W/m2 CLR
22:45 67.5 °F /  19.7 °C 55.8 °F /  13.2 °C 29.7in /  1007.0hPa Calm   2mph /  3.2km/h 66% 0in /  0.0mm 0.00 W/m2 CLR
22:49 67.3 °F /  19.6 °C 55.6 °F /  13.1 °C 29.7in /  1007.0hPa SSE 3.5mph /  5.6km/h 1.5mph /  2.4km/h 66% 0in /  0.0mm 0.00 W/m2 CLR
22:55 67.3 °F /  19.6 °C 55.9 °F /  13.3 °C 29.7in /  1007.1hPa ESE 1mph /  1.6km/h 5mph /  8.0km/h 67% 0in /  0.0mm 0.00 W/m2 CLR
22:59 66.9 °F /  19.4 °C 55.8 °F /  13.2 °C 29.7in /  1007.1hPa ESE 1.2mph /  1.9km/h 0.1mph /  0.2km/h 67% 0in /  0.0mm 0.00 W/m2 CLR
23:05 66.9 °F /  19.4 °C 55.6 °F /  13.1 °C 29.7in /  1007.1hPa Calm   2mph /  3.2km/h 67% 0in /  0.0mm 0.00 W/m2 OVC
23:09 66.7 °F /  19.3 °C 55.6 °F /  13.1 °C 29.7in /  1007.1hPa ESE 3.5mph /  5.6km/h 0.8mph /  1.3km/h 67% 0in /  0.0mm 0.00 W/m2 OVC
23:15 66.7 °F /  19.3 °C 55.8 °F /  13.2 °C 29.7in /  1007.1hPa Calm   2mph /  3.2km/h 68% 0in /  0.0mm 0.00 W/m2 OVC
23:19 66.6 °F /  19.2 °C 55.8 °F /  13.2 °C 29.7in /  1007.1hPa East 3.5mph /  5.6km/h 0.3mph /  0.5km/h 68% 0in /  0.0mm 0.00 W/m2 OVC
23:25 66.6 °F /  19.2 °C 55.6 °F /  13.1 °C 29.7in /  1007.1hPa East 1.2mph /  1.9km/h 0.2mph /  0.3km/h 68% 0in /  0.0mm 0.00 W/m2 OVC
23:29 66.6 °F /  19.2 °C 55.9 °F /  13.3 °C 29.7in /  1007.1hPa East 2.3mph /  3.7km/h 0.7mph /  1.1km/h 69% 0in /  0.0mm 0.00 W/m2 OVC
23:35 66.4 °F /  19.1 °C 55.9 °F /  13.3 °C 29.7in /  1007.2hPa Calm   3mph /  4.8km/h 69% 0in /  0.0mm 0.00 W/m2 OVC
23:39 66.4 °F /  19.1 °C 55.8 °F /  13.2 °C 29.7in /  1007.2hPa SE 2.3mph /  3.7km/h 2mph /  3.2km/h 69% 0in /  0.0mm 0.00 W/m2 OVC
23:45 66.4 °F /  19.1 °C 55.8 °F /  13.2 °C 29.7in /  1007.2hPa ESE 1mph /  1.6km/h 5mph /  8.0km/h 69% 0in /  0.0mm 0.00 W/m2 OVC
23:49 66.4 °F /  19.1 °C 55.8 °F /  13.2 °C 29.7in /  1007.1hPa ESE 2.3mph /  3.7km/h 0.9mph /  1.4km/h 69% 0in /  0.0mm 0.00 W/m2 OVC
23:55 66.4 °F /  19.1 °C 55.8 °F /  13.2 °C 29.7in /  1007.1hPa ESE 1mph /  1.6km/h 3mph /  4.8km/h 69% 0in /  0.0mm 0.00 W/m2 OVC
23:59 66.6 °F /  19.2 °C 55.6 °F /  13.1 °C 29.7in /  1007.1hPa East 3.5mph /  5.6km/h 1.4mph /  2.3km/h 68% 0in /  0.0mm 0.00 W/m2 OVC
Countryside Manor, Tucson, AZ, USA